Time;durP1;ratioP1;P1;durP2;ratioP2;P2;SDS_P1;SDS_P2;PMS_P1;PMS_P2;Temp;Humidity;BMP_temperature;BMP_pressure;BME280_temperature;BME280_humidity;BME280_pressure;Samples;Min_cycle;Max_cycle;Signal;HPM_P1;HPM_P2
2022/07/01 00:01:59;;;;;;;0.82;0.60;;;;;;;;;;5039959;28;20028;-80
2022/07/01 00:04:26;;;;;;;2.85;0.50;;;;;;;;;;5040522;28;20029;-79
2022/07/01 00:06:53;;;;;;;0.80;0.57;;;;;;;;;;5039135;28;20035;-78
2022/07/01 00:09:18;;;;;;;0.47;0.20;;;16.70;99.90;;;;;;5044868;28;20039;-78
2022/07/01 00:11:44;;;;;;;2.05;0.60;;;;;;;;;;5048993;28;20025;-79
2022/07/01 00:14:10;;;;;;;0.63;0.38;;;;;;;;;;5043450;28;20033;-80
2022/07/01 00:16:36;;;;;;;1.13;0.40;;;;;;;;;;5036273;28;20049;-80
2022/07/01 00:19:03;;;;;;;3.10;0.45;;;16.30;99.90;;;;;;5046231;28;20029;-79
2022/07/01 00:21:29;;;;;;;0.50;0.30;;;16.60;99.90;;;;;;5038550;28;20043;-80
2022/07/01 00:23:55;;;;;;;1.20;0.43;;;;;;;;;;5040175;28;20024;-79
2022/07/01 00:26:21;;;;;;;0.63;0.40;;;;;;;;;;5042629;28;20078;-79
2022/07/01 00:28:47;;;;;;;1.00;0.35;;;;;;;;;;5051530;28;20063;-77
2022/07/01 00:31:13;;;;;;;1.67;0.65;;;;;;;;;;5034879;28;20495;-78
2022/07/01 00:33:39;;;;;;;1.58;0.30;;;;;;;;;;5044181;28;20037;-81
2022/07/01 00:36:05;;;;;;;0.73;0.38;;;;;;;;;;5037737;28;20032;-80
2022/07/01 00:38:31;;;;;;;1.02;0.50;;;;;;;;;;5045797;28;20032;-80
2022/07/01 00:40:57;;;;;;;4.15;0.52;;;;;;;;;;5049845;28;20037;-80
2022/07/01 00:43:24;;;;;;;3.92;0.73;;;;;;;;;;5043577;28;20499;-82
2022/07/01 00:45:50;;;;;;;0.55;0.35;;;;;;;;;;5036138;28;20029;-81
2022/07/01 00:48:17;;;;;;;0.55;0.30;;;;;;;;;;5040047;28;20036;-79
2022/07/01 00:50:43;;;;;;;0.47;0.30;;;;;;;;;;5045982;28;20052;-80
2022/07/01 00:53:09;;;;;;;1.83;1.15;;;;;;;;;;5029771;28;20648;-80
2022/07/01 00:55:35;;;;;;;2.15;0.40;;;;;;;;;;5047274;28;20037;-79
2022/07/01 00:58:01;;;;;;;0.77;0.50;;;;;;;;;;5037395;28;20035;-79
2022/07/01 01:00:27;;;;;;;2.15;0.60;;;;;;;;;;5040511;28;20033;-80
2022/07/01 01:02:53;;;;;;;0.90;0.40;;;;;;;;;;5038773;28;20183;-81
2022/07/01 01:05:21;;;;;;;1.08;0.40;;;;;;;;;;5045330;28;20037;-79
2022/07/01 01:07:48;;;;;;;0.95;0.38;;;16.60;99.90;;;;;;5035296;28;20029;-79
2022/07/01 01:10:14;;;;;;;0.20;0.20;;;;;;;;;;5034962;28;20036;-79
2022/07/01 01:12:40;;;;;;;0.82;0.40;;;;;;;;;;5044210;28;20086;-80
2022/07/01 01:15:07;;;;;;;0.45;0.20;;;;;;;;;;5044296;28;20024;-79
2022/07/01 01:17:33;;;;;;;1.05;0.40;;;;;;;;;;5037962;28;20025;-79
2022/07/01 01:19:59;;;;;;;1.17;0.40;;;;;;;;;;5038147;28;20756;-79
2022/07/01 01:22:24;;;;;;;1.75;0.30;;;16.80;99.90;;;;;;5041481;28;21853;-80
2022/07/01 01:24:51;;;;;;;0.20;0.20;;;;;;;;;;5038789;28;20044;-79
2022/07/01 01:27:17;;;;;;;0.73;0.45;;;;;;;;;;5045479;28;20033;-80
2022/07/01 01:29:43;;;;;;;1.23;0.25;;;15.50;99.90;;;;;;5044520;28;20058;-79
2022/07/01 01:32:09;;;;;;;0.20;0.10;;;;;;;;;;5043221;28;20028;-80
2022/07/01 01:34:39;;;;;;;0.65;0.30;;;;;;;;;;5043030;28;20041;-80
2022/07/01 01:37:06;;;;;;;0.30;0.10;;;;;;;;;;5042505;28;20021;-80
2022/07/01 01:39:32;;;;;;;0.28;0.13;;;;;;;;;;5042099;28;20033;-79
2022/07/01 01:41:58;;;;;;;0.47;0.20;;;;;;;;;;5044155;28;20033;-79
2022/07/01 01:44:24;;;;;;;0.08;0.08;;;;;;;;;;5034759;28;20082;-80
2022/07/01 01:46:50;;;;;;;0.20;0.00;;;;;;;;;;5040817;28;20063;-79
2022/07/01 01:49:16;;;;;;;0.98;0.28;;;16.40;99.90;;;;;;5040654;28;20086;-77
2022/07/01 01:51:42;;;;;;;0.70;0.25;;;;;;;;;;5044414;28;20021;-79
2022/07/01 01:54:08;;;;;;;1.60;0.43;;;;;;;;;;5042602;28;20132;-78
2022/07/01 01:56:34;;;;;;;1.27;0.20;;;;;;;;;;5043415;28;20017;-78
2022/07/01 01:59:00;;;;;;;0.40;0.20;;;;;;;;;;5046451;28;20512;-78
2022/07/01 02:01:26;;;;;;;0.32;0.20;;;;;;;;;;5033982;28;20041;-78
2022/07/01 02:03:53;;;;;;;2.30;0.20;;;;;;;;;;5044476;28;20038;-79
2022/07/01 02:06:20;;;;;;;0.40;0.30;;;;;;;;;;5044321;28;20035;-80
2022/07/01 02:08:46;;;;;;;0.40;0.20;;;;;;;;;;5041534;28;20031;-79
2022/07/01 02:11:12;;;;;;;0.10;0.05;;;;;;;;;;5033509;28;20030;-79
2022/07/01 02:13:38;;;;;;;0.35;0.20;;;;;;;;;;5034319;28;20497;-79
2022/07/01 02:16:04;;;;;;;0.17;0.10;;;;;;;;;;5038802;28;20017;-80
2022/07/01 02:18:32;;;;;;;2.05;0.28;;;;;;;;;;5040434;28;20107;-80
2022/07/01 02:20:58;;;;;;;2.00;0.45;;;;;;;;;;5042871;28;20076;-79
2022/07/01 02:23:24;;;;;;;0.50;0.30;;;;;;;;;;5037669;28;20078;-78
2022/07/01 02:25:49;;;;;;;0.20;0.10;;;15.10;99.90;;;;;;5045642;28;20017;-78
2022/07/01 02:28:16;;;;;;;0.55;0.10;;;;;;;;;;5047463;28;20703;-77
2022/07/01 02:30:42;;;;;;;2.13;0.20;;;;;;;;;;5034772;28;20034;-78
2022/07/01 02:33:08;;;;;;;1.15;0.38;;;;;;;;;;5036001;28;20143;-78
2022/07/01 02:35:38;;;;;;;0.10;0.10;;;;;;;;;;5033354;28;20113;-79
2022/07/01 02:38:05;;;;;;;0.30;0.20;;;16.10;99.90;;;;;;5032077;28;20036;-80
2022/07/01 02:40:33;;;;;;;0.10;0.10;;;;;;;;;;5045560;28;20050;-80
2022/07/01 02:42:58;;;;;;;0.30;0.25;;;;;;;;;;5039357;28;20031;-80
2022/07/01 02:45:25;;;;;;;0.85;0.35;;;;;;;;;;5036250;28;20859;-80
2022/07/01 02:47:51;;;;;;;0.40;0.22;;;;;;;;;;5045834;28;20419;-79
2022/07/01 02:50:18;;;;;;;0.47;0.20;;;;;;;;;;5040047;28;21294;-82
2022/07/01 02:52:44;;;;;;;0.20;0.20;;;15.30;99.90;;;;;;5034170;28;20032;-82
2022/07/01 02:55:12;;;;;;;0.80;0.30;;;16.10;99.90;;;;;;5045640;28;20045;-82
2022/07/01 02:57:38;;;;;;;1.98;0.30;;;;;;;;;;5044263;28;20527;-82
2022/07/01 03:00:05;;;;;;;0.60;0.38;;;;;;;;;;5034935;28;20029;-82
2022/07/01 03:02:31;;;;;;;0.38;0.20;;;;;;;;;;5041955;28;20120;-81
2022/07/01 03:04:57;;;;;;;0.47;0.25;;;;;;;;;;5046826;28;20452;-81
2022/07/01 03:07:23;;;;;;;0.40;0.40;;;;;;;;;;5046964;28;20040;-81
2022/07/01 03:09:49;;;;;;;0.70;0.20;;;;;;;;;;5040324;28;20026;-83
2022/07/01 03:12:24;;;;;;;0.60;0.40;;;;;;;;;;5046369;28;20036;-82
2022/07/01 03:15:06;;;;;;;0.30;0.10;;;15.20;99.90;;;;;;5045797;28;20155;-82
2022/07/01 03:17:34;;;;;;;0.30;0.30;;;15.00;99.90;;;;;;5038035;28;20056;-83
2022/07/01 03:20:00;;;;;;;0.90;0.30;;;16.10;99.90;;;;;;5045236;28;20092;-81
2022/07/01 03:22:28;;;;;;;0.90;0.40;;;16.10;99.90;;;;;;5048604;28;20025;-82
2022/07/01 03:24:54;;;;;;;1.35;0.43;;;;;;;;;;5043007;28;20706;-81
2022/07/01 03:27:20;;;;;;;0.45;0.25;;;;;;;;;;5046149;28;20362;-82
2022/07/01 03:29:46;;;;;;;0.17;0.10;;;;;;;;;;5046197;28;20032;-82
2022/07/01 03:32:12;;;;;;;0.30;0.20;;;;;;;;;;5030764;28;20032;-81
2022/07/01 03:34:39;;;;;;;0.40;0.20;;;15.00;99.90;;;;;;5040456;28;20593;-81
2022/07/01 03:37:06;;;;;;;0.10;0.10;;;15.20;99.90;;;;;;5044453;28;20480;-81
2022/07/01 03:39:33;;;;;;;0.73;0.30;;;;;;;;;;5047020;28;20032;-81
2022/07/01 03:41:59;;;;;;;0.40;0.25;;;;;;;;;;5043699;28;20033;-81
2022/07/01 03:44:25;;;;;;;0.40;0.25;;;;;;;;;;5038962;28;20033;-81
2022/07/01 03:46:51;;;;;;;0.32;0.30;;;;;;;;;;5041891;28;20531;-80
2022/07/01 03:49:18;;;;;;;0.70;0.43;;;;;;;;;;5044171;28;20025;-80
2022/07/01 03:51:43;;;;;;;0.73;0.50;;;15.60;99.90;;;;;;5043804;28;20044;-81
2022/07/01 03:56:54;;;;;;;0.85;0.50;;;15.20;99.90;;;;;;5046156;28;20063;-81
2022/07/01 03:59:20;;;;;;;1.20;0.63;;;;;;;;;;5027451;28;20052;-80
2022/07/01 04:01:46;;;;;;;0.85;0.50;;;;;;;;;;5043649;28;20036;-80
2022/07/01 04:04:12;;;;;;;1.38;0.85;;;;;;;;;;5040566;28;20048;-81
2022/07/01 04:06:38;;;;;;;0.77;0.43;;;;;;;;;;5048368;28;20025;-81
2022/07/01 04:09:04;;;;;;;0.80;0.55;;;;;;;;;;5046134;28;20490;-82
2022/07/01 04:11:30;;;;;;;0.82;0.50;;;;;;;;;;5044010;28;20044;-80
2022/07/01 04:13:56;;;;;;;0.65;0.30;;;;;;;;;;5041181;28;20041;-81
2022/07/01 04:16:23;;;;;;;0.82;0.57;;;;;;;;;;5038643;28;20063;-79
2022/07/01 04:18:49;;;;;;;2.80;0.63;;;15.10;99.90;;;;;;5046796;28;20037;-80
2022/07/01 04:24:00;;;;;;;2.88;0.65;;;;;;;;;;5042479;28;20071;-80
2022/07/01 04:26:26;;;;;;;2.45;0.68;;;;;;;;;;5045924;28;20556;-81
2022/07/01 04:28:52;;;;;;;0.50;0.40;;;;;;;;;;5050434;28;20033;-80
2022/07/01 04:31:19;;;;;;;1.10;0.47;;;;;;;;;;5036357;28;20140;-78
2022/07/01 04:33:45;;;;;;;1.33;0.73;;;;;;;;;;5042410;28;20041;-80
2022/07/01 04:36:11;;;;;;;0.90;0.60;;;;;;;;;;5043810;28;20063;-79
2022/07/01 04:38:36;;;;;;;2.72;0.77;;;15.10;99.90;;;;;;5039806;28;20067;-80
2022/07/01 04:43:47;;;;;;;1.27;0.82;;;;;;;;;;5048566;28;20555;-79
2022/07/01 04:46:13;;;;;;;1.48;0.80;;;;;;;;;;5039712;28;20519;-77
2022/07/01 04:48:40;;;;;;;1.30;0.93;;;;;;;;;;5034116;28;20067;-77
2022/07/01 04:51:06;;;;;;;2.28;0.75;;;;;;;;;;5037103;28;20032;-78
2022/07/01 04:53:32;;;;;;;1.42;0.80;;;;;;;;;;5038978;28;20058;-79
2022/07/01 04:55:58;;;;;;;2.15;0.93;;;;;;;;;;5046583;28;20496;-77
2022/07/01 04:58:24;;;;;;;1.98;1.10;;;;;;;;;;5036602;28;20044;-78
2022/07/01 05:00:50;;;;;;;4.45;0.73;;;;;;;;;;5035183;28;20029;-79
2022/07/01 05:03:16;;;;;;;2.05;0.90;;;15.30;99.90;;;;;;5046988;28;20235;-79
2022/07/01 05:05:42;;;;;;;0.90;0.60;;;;;;;;;;5042885;28;20025;-77
2022/07/01 05:08:08;;;;;;;1.13;0.50;;;;;;;;;;5039116;28;20033;-78
2022/07/01 05:10:34;;;;;;;2.17;0.73;;;;;;;;;;5037278;28;20520;-78
2022/07/01 05:13:00;;;;;;;1.90;0.93;;;;;;;;;;5036103;28;20028;-77
2022/07/01 05:15:26;;;;;;;1.73;0.95;;;;;;;;;;5039716;28;20425;-78
2022/07/01 05:23:21;;;;;;;1.83;0.80;;;;;;;;;;5042530;28;20499;-77
2022/07/01 05:25:47;;;;;;;2.10;0.98;;;15.30;99.90;;;;;;5045227;28;20021;-78
2022/07/01 05:28:13;;;;;;;1.45;0.80;;;;;;;;;;5033545;28;20025;-78
2022/07/01 05:30:39;;;;;;;1.55;0.90;;;;;;;;;;5034298;28;20064;-78
2022/07/01 05:33:05;;;;;;;1.55;0.75;;;;;;;;;;5041501;28;20040;-78
2022/07/01 05:35:31;;;;;;;4.65;0.90;;;;;;;;;;5028971;28;20432;-77
2022/07/01 05:37:58;;;;;;;2.05;0.60;;;;;;;;;;5033979;28;20033;-77
2022/07/01 05:40:25;;;;;;;1.98;0.93;;;;;;;;;;5033495;28;20049;-78
2022/07/01 05:42:52;;;;;;;1.58;0.88;;;;;;;;;;5033319;28;20144;-81
2022/07/01 05:45:18;;;;;;;2.50;0.57;;;;;;;;;;5023930;28;20033;-80
2022/07/01 05:47:44;;;;;;;1.95;0.55;;;;;;;;;;5013273;28;20044;-80
2022/07/01 05:50:10;;;;;;;1.17;0.60;;;;;;;;;;5031402;28;20492;-80
2022/07/01 05:52:36;;;;;;;1.85;0.70;;;;;;;;;;5023537;28;20208;-81
2022/07/01 05:55:02;;;;;;;1.13;0.63;;;;;;;;;;5038521;28;20033;-81
2022/07/01 05:57:28;;;;;;;2.22;1.20;;;16.20;99.90;;;;;;5045694;28;20033;-79
2022/07/01 05:59:53;;;;;;;1.63;0.57;;;;;;;;;;5042804;28;20167;-81
2022/07/01 06:02:24;;;;;;;1.50;0.90;;;;;;;;;;5039674;28;20028;-81
2022/07/01 06:04:50;;;;;;;1.85;0.93;;;;;;;;;;5046430;28;20136;-80
2022/07/01 06:07:18;;;;;;;1.83;0.80;;;;;;;;;;5046018;28;20446;-81
2022/07/01 06:09:45;;;;;;;1.13;0.70;;;;;;;;;;5041921;28;20028;-81
2022/07/01 06:12:11;;;;;;;3.35;1.27;;;;;;;;;;5042249;28;20037;-80
2022/07/01 06:14:37;;;;;;;1.42;0.65;;;;;;;;;;5035349;28;22322;-81
2022/07/01 06:17:04;;;;;;;7.93;1.90;;;;;;;;;;5021620;28;20391;-82
2022/07/01 06:19:30;;;;;;;2.75;0.43;;;;;;;;;;5043038;28;20032;-79
2022/07/01 06:21:56;;;;;;;2.00;1.13;;;;;;;;;;5036211;28;20132;-81
2022/07/01 06:24:23;;;;;;;0.85;0.65;;;;;;;;;;5042135;28;20452;-78
2022/07/01 06:26:50;;;;;;;3.58;0.90;;;;;;;;;;5041978;28;20059;-81
2022/07/01 06:29:16;;;;;;;21.45;4.40;;;;;;;;;;5044603;28;20021;-81
2022/07/01 06:31:42;;;;;;;1.15;0.55;;;;;;;;;;5042528;28;20025;-80
2022/07/01 06:34:08;;;;;;;2.67;1.48;;;;;;;;;;5041934;28;20083;-82
2022/07/01 06:36:33;;;;;;;2.63;1.45;;;16.50;99.90;;;;;;5037102;28;20485;-81
2022/07/01 06:38:59;;;;;;;1.33;0.60;;;;;;;;;;5042699;28;20040;-81
2022/07/01 06:41:28;;;;;;;1.58;0.70;;;;;;;;;;5042958;28;20443;-82
2022/07/01 06:43:55;;;;;;;2.55;1.10;;;;;;;;;;5038334;28;20435;-81
2022/07/01 06:46:21;;;;;;;1.95;0.57;;;;;;;;;;5048766;28;20065;-81
2022/07/01 06:48:47;;;;;;;5.07;1.35;;;;;;;;;;5047306;28;20472;-82
2022/07/01 06:51:13;;;;;;;2.13;0.88;;;;;;;;;;5041547;28;20025;-81
2022/07/01 06:53:39;;;;;;;2.08;0.80;;;;;;;;;;5058228;28;20045;-81
2022/07/01 06:56:05;;;;;;;1.52;0.80;;;16.40;99.90;;;;;;5075090;28;20029;-81
2022/07/01 06:58:31;;;;;;;1.75;0.90;;;;;;;;;;5059446;28;20088;-80
2022/07/01 07:00:57;;;;;;;2.03;1.10;;;;;;;;;;5044292;28;20044;-81
2022/07/01 07:03:23;;;;;;;1.40;0.90;;;;;;;;;;5032606;28;20028;-82
2022/07/01 07:05:49;;;;;;;1.45;0.93;;;15.30;99.90;;;;;;5040457;28;20029;-83
2022/07/01 07:08:15;;;;;;;0.73;0.70;;;;;;;;;;5041710;28;20035;-80
2022/07/01 07:10:41;;;;;;;1.33;0.60;;;;;;;;;;5041829;28;20037;-79
2022/07/01 07:13:07;;;;;;;2.38;1.05;;;;;;;;;;5035069;28;20040;-81
2022/07/01 07:15:33;;;;;;;4.57;1.08;;;;;;;;;;5041427;28;20049;-78
2022/07/01 07:17:59;;;;;;;1.70;0.65;;;;;;;;;;5041038;28;20436;-77
2022/07/01 07:20:25;;;;;;;2.45;1.10;;;;;;;;;;5040507;28;20056;-79
2022/07/01 07:22:51;;;;;;;1.95;0.60;;;;;;;;;;5038261;28;20168;-80
2022/07/01 07:25:17;;;;;;;2.17;0.98;;;;;;;;;;5035223;28;20040;-77
2022/07/01 07:27:46;;;;;;;1.45;0.77;;;;;;;;;;5035794;28;20160;-81
2022/07/01 07:30:14;;;;;;;1.75;0.77;;;;;;;;;;5044545;28;20524;-80
2022/07/01 07:32:41;;;;;;;0.75;0.40;;;;;;;;;;5048632;28;20017;-80
2022/07/01 07:35:07;;;;;;;2.45;0.90;;;;;;;;;;5059237;28;20013;-79
2022/07/01 07:37:34;;;;;;;1.45;0.80;;;;;;;;;;5040674;28;20089;-78
2022/07/01 07:40:00;;;;;;;2.17;0.75;;;;;;;;;;5051597;28;20397;-79
2022/07/01 07:42:27;;;;;;;1.08;0.70;;;;;;;;;;5054938;28;20032;-78
2022/07/01 07:44:53;;;;;;;3.22;1.27;;;;;;;;;;5057316;28;20039;-79
2022/07/01 07:47:19;;;;;;;1.77;0.82;;;;;;;;;;5045326;28;20091;-79
2022/07/01 07:49:46;;;;;;;3.00;1.02;;;;;;;;;;5048555;28;20033;-79
2022/07/01 07:52:12;;;;;;;1.42;0.60;;;;;;;;;;5047473;28;20311;-79
2022/07/01 07:54:38;;;;;;;1.00;0.65;;;;;;;;;;5045685;28;20039;-80
2022/07/01 07:57:05;;;;;;;1.58;0.60;;;;;;;;;;5027264;28;20033;-78
2022/07/01 07:59:31;;;;;;;2.05;0.55;;;;;;;;;;5034591;28;20053;-78
2022/07/01 08:01:57;;;;;;;1.60;0.60;;;;;;;;;;5026676;28;20063;-79
2022/07/01 08:04:23;;;;;;;1.20;0.63;;;;;;;;;;5041164;28;20037;-79
2022/07/01 08:06:49;;;;;;;1.70;1.08;;;;;;;;;;5046565;28;20106;-80
2022/07/01 08:09:15;;;;;;;1.60;0.75;;;;;;;;;;5030572;28;20477;-79
2022/07/01 08:11:41;;;;;;;0.88;0.68;;;;;;;;;;5041946;28;20091;-81
2022/07/01 08:14:07;;;;;;;2.50;0.60;;;;;;;;;;5035396;28;20044;-80
2022/07/01 08:16:33;;;;;;;1.15;0.57;;;;;;;;;;5038832;28;20436;-79
2022/07/01 08:18:58;;;;;;;0.63;0.40;;;;;;;;;;5042996;28;20041;-79
2022/07/01 08:21:24;;;;;;;1.35;0.60;;;;;;;;;;5044767;28;20136;-79
2022/07/01 08:23:50;;;;;;;1.98;0.98;;;;;;;;;;5045327;28;20044;-80
2022/07/01 08:26:17;;;;;;;2.28;0.80;;;;;;;;;;5042648;28;20029;-79
2022/07/01 08:28:43;;;;;;;1.70;0.73;;;;;;;;;;5035823;28;20088;-79
2022/07/01 08:31:09;;;;;;;;;;;;;;;;;;5041072;28;20292;-79
2022/07/01 08:33:37;;;;;;;1.02;0.60;;;;;;;;;;5034007;28;19947;-79
2022/07/01 08:36:03;;;;;;;1.90;0.80;;;;;;;;;;5038583;28;20028;-80
2022/07/01 08:38:29;;;;;;;0.98;0.63;;;;;;;;;;5041754;28;20033;-79
2022/07/01 08:40:55;;;;;;;1.77;0.50;;;;;;;;;;5033923;28;20025;-79
2022/07/01 08:43:21;;;;;;;0.95;0.40;;;;;;;;;;5040715;28;20032;-79
2022/07/01 08:45:48;;;;;;;3.92;0.70;;;;;;;;;;5043615;28;20493;-79
2022/07/01 08:48:14;;;;;;;1.67;0.30;;;;;;;;;;5042034;28;20055;-80
2022/07/01 08:50:40;;;;;;;0.40;0.20;;;;;;;;;;5057580;28;20056;-78
2022/07/01 08:53:08;;;;;;;0.32;0.22;;;;;;;;;;5045404;28;20194;-78
2022/07/01 08:58:20;;;;;;;6.00;0.50;;;;;;;;;;5042330;28;20108;-78
2022/07/01 09:00:46;;;;;;;0.77;0.30;;;;;;;;;;5038105;28;20100;-78
2022/07/01 09:03:11;;;;;;;0.55;0.40;;;;;;;;;;5040591;28;20337;-79
2022/07/01 09:05:38;;;;;;;1.17;0.43;;;;;;;;;;5038818;28;20046;-78
2022/07/01 09:08:05;;;;;;;0.73;0.40;;;;;;;;;;5032353;28;20025;-78
2022/07/01 09:10:34;;;;;;;0.85;0.50;;;;;;;;;;5042795;28;20053;-79
2022/07/01 09:13:07;;;;;;;0.65;0.25;;;;;;;;;;5038873;28;20064;-78
2022/07/01 09:15:33;;;;;;;0.20;0.20;;;;;;;;;;5036570;28;20548;-81
2022/07/01 09:18:12;;;;;;;0.47;0.20;;;;;;;;;;5035779;28;20148;-81
2022/07/01 09:20:43;;;;;;;0.98;0.50;;;16.60;99.90;;;;;;5038973;28;20481;-78
2022/07/01 09:23:11;;;;;;;0.77;0.43;;;;;;;;;;5041141;28;20041;-78
2022/07/01 09:25:39;;;;;;;3.90;0.40;;;;;;;;;;5032487;28;20035;-78
2022/07/01 09:28:07;;;;;;;1.25;0.50;;;16.50;99.90;;;;;;5031942;28;20115;-79
2022/07/01 09:30:33;;;;;;;1.25;0.38;;;15.40;99.90;;;;;;5038186;28;20992;-79
2022/07/01 09:33:13;;;;;;;0.63;0.50;;;;;;;;;;5043401;28;20478;-79
2022/07/01 09:35:39;;;;;;;0.90;0.43;;;;;;;;;;5040172;28;20064;-78
2022/07/01 09:38:07;;;;;;;0.70;0.40;;;;;;;;;;5034334;28;20057;-78
2022/07/01 09:40:50;;;;;;;0.65;0.63;;;;;;;;;;5042966;28;20039;-78
2022/07/01 09:43:17;;;;;;;0.82;0.32;;;;;;;;;;5039728;28;20628;-78
2022/07/01 09:45:53;;;;;;;1.30;0.68;;;;;;;;;;5038400;28;20039;-78
2022/07/01 09:48:19;;;;;;;2.17;0.85;;;;;;;;;;5038791;28;20039;-80
2022/07/01 09:50:45;;;;;;;0.82;0.47;;;;;;;;;;5035478;28;20029;-78
2022/07/01 09:53:12;;;;;;;0.57;0.40;;;16.60;99.90;;;;;;5031512;28;20044;-78
2022/07/01 09:55:39;;;;;;;0.93;0.55;;;;;;;;;;5036584;28;20036;-78
2022/07/01 09:58:05;;;;;;;;;;;15.60;99.90;;;;;;5046796;28;20664;-78
2022/07/01 10:00:34;;;;;;;;;;;;;;;;;;5041903;28;19932;-79
2022/07/01 10:03:00;;;;;;;;;;;15.60;99.90;;;;;;5040045;28;19934;-78
2022/07/01 10:05:26;;;;;;;;;;;16.80;99.90;;;;;;5038712;28;19984;-78
2022/07/01 10:07:53;;;;;;;;;;;;;;;;;;5032585;28;19909;-79
2022/07/01 10:10:31;;;;;;;;;;;16.80;99.90;;;;;;5041901;28;19999;-78
2022/07/01 10:12:57;;;;;;;;;;;16.90;99.90;;;;;;5037989;28;19923;-78
2022/07/01 10:15:23;;;;;;;;;;;;;;;;;;5039681;28;19932;-78
2022/07/01 10:17:49;;;;;;;;;;;;;;;;;;5037627;28;20372;-77
2022/07/01 10:20:15;;;;;;;;;;;17.10;99.90;;;;;;5040029;28;19931;-78
2022/07/01 10:22:42;;;;;;;;;;;16.90;99.90;;;;;;5035208;28;19916;-79
2022/07/01 10:25:26;;;;;;;;;;;17.00;99.90;;;;;;5029922;28;19925;-78
2022/07/01 10:28:10;;;;;;;;;;;17.00;99.90;;;;;;5041569;28;19909;-78
2022/07/01 10:30:36;;;;;;;;;;;;;;;;;;5038073;28;19909;-78
2022/07/01 10:33:01;;;;;;;;;;;16.70;99.90;;;;;;5040014;28;20257;-79
2022/07/01 10:35:27;;;;;;;;;;;;;;;;;;5035052;28;19917;-79
2022/07/01 10:37:53;;;;;;;;;;;;;;;;;;5042767;28;20268;-78
2022/07/01 10:40:19;;;;;;;;;;;;;;;;;;5040382;28;19912;-79
2022/07/01 10:42:45;;;;;;;;;;;;;;;;;;5039225;28;19987;-79
2022/07/01 10:45:11;;;;;;;;;;;;;;;;;;5044939;28;19979;-80
2022/07/01 10:47:37;;;;;;;;;;;;;;;;;;5044109;28;19909;-79
2022/07/01 10:50:03;;;;;;;;;;;15.30;99.90;;;;;;5042476;28;19924;-80
2022/07/01 10:52:29;;;;;;;;;;;15.50;99.90;;;;;;5045590;28;19935;-79
2022/07/01 10:54:55;;;;;;;;;;;;;;;;;;5039538;28;20414;-79
2022/07/01 10:57:23;;;;;;;;;;;16.40;99.90;;;;;;5033257;28;19996;-80
2022/07/01 10:59:55;;;;;;;;;;;16.40;99.90;;;;;;5041168;28;20421;-80
2022/07/01 11:02:21;;;;;;;;;;;;;;;;;;5042820;28;20069;-79
2022/07/01 11:04:47;;;;;;;;;;;;;;;;;;5035343;28;20373;-79
2022/07/01 11:07:12;;;;;;;;;;;15.20;99.90;;;;;;5038580;28;19995;-78
2022/07/01 11:09:38;;;;;;;;;;;;;;;;;;5044740;28;20575;-79
2022/07/01 11:12:05;;;;;;;;;;;15.40;99.90;;;;;;5036727;28;19912;-80
2022/07/01 11:14:31;;;;;;;;;;;;;;;;;;5043214;28;20126;-79
2022/07/01 11:16:57;;;;;;;;;;;;;;;;;;5027262;28;20452;-79
2022/07/01 11:19:24;;;;;;;;;;;;;;;;;;5045170;28;19916;-80
2022/07/01 11:21:49;;;;;;;;;;;;;;;;;;5040159;28;19917;-79
2022/07/01 11:24:16;;;;;;;;;;;16.40;99.90;;;;;;5042611;28;19920;-80
2022/07/01 11:26:42;;;;;;;;;;;;;;;;;;5036331;28;19935;-79
2022/07/01 11:29:08;;;;;;;;;;;;;;;;;;5037805;28;19912;-79
2022/07/01 11:31:33;;;;;;;;;;;16.80;99.90;;;;;;5041259;28;19909;-79
2022/07/01 11:33:59;;;;;;;;;;;;;;;;;;5047663;28;20049;-78
2022/07/01 11:39:22;;;;;;;;;;;;;;;;;;5041447;28;19924;-79
2022/07/01 11:41:55;;;;;;;;;;;16.90;99.90;;;;;;5053240;28;20158;-79
2022/07/01 11:44:27;;;;;;;;;;;17.20;99.90;;;;;;5046942;28;20035;-79
2022/07/01 11:46:53;;;;;;;;;;;16.70;99.90;;;;;;5045163;28;19916;-79
2022/07/01 11:49:23;;;;;;;;;;;;;;;;;;5042688;28;20392;-78
2022/07/01 11:51:49;;;;;;;;;;;;;;;;;;5047140;28;20507;-79
2022/07/01 11:54:15;;;;;;;;;;;;;;;;;;5037540;28;19924;-80
2022/07/01 11:56:45;;;;;;;;;;;18.30;99.90;;;;;;5033899;28;19936;-78
2022/07/01 11:59:11;;;;;;;;;;;18.90;99.90;;;;;;5037926;28;19924;-80
2022/07/01 12:01:40;;;;;;;;;;;18.50;99.90;;;;;;5042228;28;19917;-79
2022/07/01 12:04:08;;;;;;;1.77;0.75;;;19.60;99.90;;;;;;5047105;28;19909;-79
2022/07/01 12:06:38;;;;;;;2.00;0.80;;;20.40;99.90;;;;;;5037714;28;20056;-79
2022/07/01 12:09:03;;;;;;;;;;;18.80;99.90;;;;;;5037146;28;20086;-80
2022/07/01 12:11:29;;;;;;;;;;;18.90;99.90;;;;;;5052631;28;19958;-80
2022/07/01 12:13:56;;;;;;;;;;;20.10;99.90;;;;;;5032869;28;20042;-80
2022/07/01 12:16:24;;;;;;;;;;;20.60;99.90;;;;;;5029259;28;19924;-79
2022/07/01 12:19:01;;;;;;;1.83;0.82;;;20.70;99.90;;;;;;5048435;28;19912;-79
2022/07/01 12:21:28;;;;;;;1.50;0.80;;;20.70;99.90;;;;;;5043508;28;20040;-79
2022/07/01 12:24:12;;;;;;;0.80;0.70;;;20.60;99.90;;;;;;5041361;28;20029;-79
2022/07/01 12:26:48;;;;;;;1.05;0.82;;;20.60;99.90;;;;;;5044947;28;20032;-80
2022/07/01 12:29:15;;;;;;;2.08;0.52;;;21.30;99.90;;;;;;5039521;28;20128;-83
2022/07/01 12:31:41;;;;;;;;;;;21.30;99.90;;;;;;5036785;28;20589;-82
2022/07/01 12:34:07;;;;;;;;;;;21.90;99.90;;;;;;5040707;28;19948;-82
2022/07/01 12:36:33;;;;;;;;;;;23.00;99.90;;;;;;5028994;28;19989;-79
2022/07/01 12:39:08;;;;;;;1.00;0.47;;;22.60;99.90;;;;;;5033501;28;19921;-80
2022/07/01 12:41:35;;;;;;;0.82;0.50;;;22.10;99.90;;;;;;5027587;28;20120;-81
2022/07/01 12:44:06;;;;;;;1.42;0.60;;;;;;;;;;5042436;28;20108;-81
2022/07/01 12:46:32;;;;;;;1.00;0.50;;;22.30;99.90;;;;;;5039556;28;20032;-80
2022/07/01 12:48:58;;;;;;;0.98;0.73;;;;;;;;;;5042359;28;20040;-81
2022/07/01 12:51:33;;;;;;;0.85;0.52;;;21.10;99.90;;;;;;5042120;28;20021;-82
2022/07/01 12:54:00;;;;;;;2.38;0.60;;;;;;;;;;5036007;28;20041;-83
2022/07/01 12:56:28;;;;;;;2.60;1.05;;;;;;;;;;5047620;28;20055;-84
2022/07/01 12:58:54;;;;;;;1.77;0.55;;;21.40;99.90;;;;;;5048775;28;20034;-83
2022/07/01 13:01:21;;;;;;;5.15;0.63;;;;;;;;;;5037272;28;20956;-82
2022/07/01 13:03:47;;;;;;;;;;;22.90;99.50;;;;;;5037421;28;20504;-80
2022/07/01 13:06:13;;;;;;;1.08;0.65;;;;;;;;;;5031648;28;22082;-82
2022/07/01 13:08:39;;;;;;;1.23;0.60;;;;;;;;;;5032243;28;20025;-82
2022/07/01 13:11:08;;;;;;;1.05;0.75;;;;;;;;;;5043071;28;20037;-83
2022/07/01 13:13:34;;;;;;;1.88;0.70;;;;;;;;;;5036723;28;20108;-83
2022/07/01 13:16:00;;;;;;;0.95;0.45;;;;;;;;;;5042350;28;20032;-82
2022/07/01 13:18:26;;;;;;;1.88;0.85;;;;;;;;;;5043822;28;20281;-82
2022/07/01 13:20:52;;;;;;;1.48;0.75;;;;;;;;;;5032703;28;20120;-81
2022/07/01 13:23:18;;;;;;;1.42;0.68;;;;;;;;;;5031764;28;20155;-80
2022/07/01 13:25:44;;;;;;;1.65;0.70;;;;;;;;;;5036166;28;20127;-81
2022/07/01 13:28:10;;;;;;;2.03;0.80;;;;;;;;;;5049228;28;20040;-82
2022/07/01 13:30:37;;;;;;;1.48;0.82;;;;;;;;;;5036225;28;20537;-80
2022/07/01 13:33:03;;;;;;;0.70;0.50;;;;;;;;;;5039017;28;20041;-85
2022/07/01 13:35:29;;;;;;;2.17;0.77;;;;;;;;;;5038323;28;20396;-83
2022/07/01 13:37:55;;;;;;;1.77;0.60;;;;;;;;;;5030707;28;20033;-84
2022/07/01 13:40:21;;;;;;;0.47;0.30;;;;;;;;;;5038596;28;20043;-84
2022/07/01 13:42:47;;;;;;;1.35;0.47;;;;;;;;;;5041796;28;20025;-82
2022/07/01 13:45:13;;;;;;;0.70;0.47;;;;;;;;;;5036322;28;20025;-81
2022/07/01 13:47:40;;;;;;;0.93;0.40;;;;;;;;;;5040793;28;20443;-81
2022/07/01 13:50:06;;;;;;;2.70;0.40;;;;;;;;;;5029592;28;20036;-83
2022/07/01 13:52:32;;;;;;;2.60;0.68;;;;;;;;;;5026148;28;20096;-82
2022/07/01 13:54:58;;;;;;;2.85;0.40;;;22.50;98.00;;;;;;5038783;28;20542;-83
2022/07/01 13:57:24;;;;;;;1.05;0.70;;;;;;;;;;5047371;28;20120;-83
2022/07/01 13:59:52;;;;;;;1.40;0.60;;;;;;;;;;5036528;28;20994;-82
2022/07/01 14:02:18;;;;;;;1.52;0.73;;;;;;;;;;5039342;28;20043;-82
2022/07/01 14:04:45;;;;;;;1.83;0.50;;;;;;;;;;5014359;28;20055;-81
2022/07/01 14:07:10;;;;;;;1.45;0.57;;;22.80;99.90;;;;;;5039892;28;20041;-81
2022/07/01 14:09:36;;;;;;;6.00;0.95;;;22.90;99.90;;;;;;5037419;28;20443;-82
2022/07/01 14:12:02;;;;;;;1.83;0.75;;;;;;;;;;5043551;28;20066;-83
2022/07/01 14:14:28;;;;;;;1.58;0.60;;;;;;;;;;5037805;28;20056;-83
2022/07/01 14:16:54;;;;;;;2.83;0.40;;;;;;;;;;5035661;28;20345;-83
2022/07/01 14:19:20;;;;;;;2.15;0.63;;;;;;;;;;5045267;28;20030;-81
2022/07/01 14:21:46;;;;;;;2.15;0.55;;;;;;;;;;5036163;28;20035;-81
2022/07/01 14:24:11;;;;;;;1.33;0.43;;;22.40;99.90;;;;;;5037749;28;20543;-80
2022/07/01 14:26:38;;;;;;;0.65;0.60;;;;;;;;;;5027403;28;20467;-85
2022/07/01 14:29:03;;;;;;;1.00;0.47;;;21.60;99.90;;;;;;5024762;28;20017;-82
2022/07/01 14:31:29;;;;;;;2.15;0.50;;;;;;;;;;5033401;28;20546;-85
2022/07/01 14:33:55;;;;;;;0.80;0.40;;;;;;;;;;5030218;28;20037;-87
2022/07/01 14:36:21;;;;;;;1.10;0.22;;;;;;;;;;5031479;28;20021;-81
2022/07/01 14:38:47;;;;;;;0.50;0.30;;;;;;;;;;5035678;28;20119;-82
2022/07/01 14:41:13;;;;;;;0.47;0.20;;;;;;;;;;5032912;28;20043;-83
2022/07/01 14:43:39;;;;;;;0.68;0.38;;;;;;;;;;5037951;28;20020;-79
2022/07/01 14:46:10;;;;;;;0.77;0.20;;;;;;;;;;5033462;28;20033;-83
2022/07/01 14:48:38;;;;;;;2.90;0.30;;;;;;;;;;5038749;28;20032;-80